Time;durP1;ratioP1;P1;durP2;ratioP2;P2;SDS_P1;SDS_P2;PMS_P1;PMS_P2;Temp;Humidity;BMP_temperature;BMP_pressure;BME280_temperature;BME280_humidity;BME280_pressure;Samples;Min_cycle;Max_cycle;Signal;HPM_P1;HPM_P2
2022/01/28 00:02:39;;;;;;;7.97;2.47;;;4.60;99.90;;;;;;5092858;28;20272;-54
2022/01/28 00:05:13;;;;;;;11.90;2.80;;;4.60;99.90;;;;;;5092669;28;20672;-55
2022/01/28 00:07:43;;;;;;;8.33;2.73;;;4.60;99.90;;;;;;5092776;28;20211;-54
2022/01/28 00:10:11;;;;;;;11.30;3.30;;;4.60;99.90;;;;;;5100835;28;20271;-55
2022/01/28 00:12:55;;;;;;;10.77;2.90;;;4.50;99.90;;;;;;5113666;28;20227;-54
2022/01/28 00:15:29;;;;;;;8.37;2.70;;;4.50;99.90;;;;;;5113270;28;20207;-55
2022/01/28 00:37:25;;;;;;;12.37;3.10;;;4.50;99.90;;;;;;5072025;28;20232;-55
2022/01/28 00:39:55;;;;;;;11.53;3.20;;;4.50;99.90;;;;;;5072330;28;20243;-57
2022/01/28 00:42:23;;;;;;;10.70;3.10;;;4.50;99.90;;;;;;5100925;28;20291;-55
2022/01/28 00:44:51;;;;;;;10.60;2.70;;;4.50;99.90;;;;;;5091475;28;20221;-54
2022/01/28 00:47:19;;;;;;;7.77;2.43;;;4.50;99.90;;;;;;5092136;28;20693;-55
2022/01/28 00:49:47;;;;;;;12.63;2.90;;;4.50;99.90;;;;;;5091589;28;20216;-55
2022/01/28 00:52:15;;;;;;;12.57;3.00;;;4.50;99.90;;;;;;5093179;28;20227;-55
2022/01/28 00:54:43;;;;;;;9.17;2.80;;;4.60;99.90;;;;;;5094387;28;20204;-55
2022/01/28 00:57:12;;;;;;;5.40;2.60;;;4.50;99.90;;;;;;5091970;28;20206;-54
2022/01/28 00:59:41;;;;;;;7.27;2.43;;;4.50;99.90;;;;;;5081356;28;20243;-55
2022/01/28 01:02:09;;;;;;;10.57;2.60;;;4.60;99.90;;;;;;5073480;28;20256;-54
2022/01/28 01:04:37;;;;;;;5.33;2.53;;;4.60;99.90;;;;;;5092213;28;20261;-55
2022/01/28 01:07:05;;;;;;;9.23;3.03;;;4.50;99.90;;;;;;5091678;28;20235;-55
2022/01/28 01:09:33;;;;;;;9.30;3.00;;;4.50;99.90;;;;;;5094548;28;20668;-55
2022/01/28 01:12:01;;;;;;;7.20;2.57;;;4.50;99.90;;;;;;5111931;28;20238;-55
2022/01/28 01:14:31;;;;;;;8.60;3.00;;;4.50;99.90;;;;;;5112282;28;20250;-54
2022/01/28 01:17:10;;;;;;;7.53;2.60;;;4.40;99.90;;;;;;5102852;28;20576;-55
2022/01/28 01:19:42;;;;;;;13.17;3.03;;;4.40;99.90;;;;;;5091661;28;20202;-55
2022/01/28 01:22:12;;;;;;;11.17;2.53;;;4.30;99.90;;;;;;5091480;28;20815;-55
2022/01/28 01:24:49;;;;;;;6.73;2.70;;;4.20;99.90;;;;;;5091192;28;20587;-54
2022/01/28 01:27:19;;;;;;;6.77;2.53;;;4.20;99.90;;;;;;5091745;28;20218;-55
2022/01/28 01:29:48;;;;;;;10.90;2.90;;;4.10;99.90;;;;;;5091074;28;20208;-55
2022/01/28 01:32:18;;;;;;;11.00;3.10;;;4.20;99.90;;;;;;5090169;28;20257;-55
2022/01/28 01:34:48;;;;;;;10.80;2.70;;;4.10;99.90;;;;;;5091311;28;20559;-55
2022/01/28 01:37:16;;;;;;;9.77;3.03;;;4.20;99.90;;;;;;5091360;28;20678;-55
2022/01/28 01:39:44;;;;;;;8.20;2.87;;;4.20;99.90;;;;;;5091352;28;20241;-55
2022/01/28 01:42:23;;;;;;;9.77;2.63;;;4.20;99.90;;;;;;5093184;28;20221;-55
2022/01/28 01:45:40;;;;;;;13.60;3.43;;;4.20;99.90;;;;;;5104163;28;20238;-54
2022/01/28 01:53:33;;;;;;;15.70;3.03;;;4.30;99.90;;;;;;5091027;28;20270;-55
2022/01/28 01:56:01;;;;;;;9.33;3.30;;;4.30;99.90;;;;;;5091368;28;20241;-54
2022/01/28 01:58:31;;;;;;;11.77;2.80;;;4.30;99.90;;;;;;5091188;28;20237;-55
2022/01/28 02:01:03;;;;;;;18.13;3.10;;;4.20;99.90;;;;;;5070781;28;20221;-55
2022/01/28 02:03:31;;;;;;;9.27;2.70;;;4.10;99.90;;;;;;5069682;28;20717;-54
2022/01/28 02:06:00;;;;;;;9.50;2.40;;;4.10;99.90;;;;;;5071196;28;20259;-54
2022/01/28 02:08:31;;;;;;;9.50;2.70;;;4.10;99.90;;;;;;5070617;28;20555;-54
2022/01/28 02:11:00;;;;;;;10.63;2.90;;;4.00;99.90;;;;;;5100900;28;20226;-55
2022/01/28 02:13:29;;;;;;;13.33;2.87;;;4.00;99.90;;;;;;5100150;28;20703;-55
2022/01/28 02:16:00;;;;;;;10.17;2.60;;;4.00;99.90;;;;;;5090310;28;20624;-55
2022/01/28 02:18:29;;;;;;;10.87;2.87;;;4.00;99.90;;;;;;5091122;28;20213;-55
2022/01/28 02:21:05;;;;;;;16.50;2.73;;;4.00;99.90;;;;;;5090596;28;20228;-55
2022/01/28 02:23:34;;;;;;;9.40;2.90;;;4.00;99.90;;;;;;5090658;28;20256;-55
2022/01/28 02:26:03;;;;;;;9.77;2.83;;;3.90;99.90;;;;;;5090457;28;20236;-55
2022/01/28 02:28:35;;;;;;;8.77;2.80;;;3.90;99.90;;;;;;5090273;28;20237;-55
2022/01/28 02:31:04;;;;;;;11.63;2.93;;;3.90;99.90;;;;;;5090363;28;20552;-54
2022/01/28 02:33:32;;;;;;;8.20;2.63;;;3.90;99.90;;;;;;5095803;28;20262;-55
2022/01/28 02:36:06;;;;;;;13.30;2.93;;;4.00;99.90;;;;;;5099688;28;20284;-55
2022/01/28 02:38:35;;;;;;;9.77;2.80;;;4.00;99.90;;;;;;5090560;28;20251;-55
2022/01/28 02:41:05;;;;;;;9.37;3.13;;;4.00;99.90;;;;;;5090791;28;20201;-55
2022/01/28 02:43:39;;;;;;;9.60;2.83;;;4.00;99.90;;;;;;5078174;28;20257;-54
2022/01/28 02:46:10;;;;;;;9.07;2.20;;;4.00;99.90;;;;;;5081683;28;20566;-59
2022/01/28 02:48:42;;;;;;;11.50;2.93;;;4.00;99.90;;;;;;5094369;28;20659;-55
2022/01/28 02:51:15;;;;;;;10.67;2.90;;;4.00;99.90;;;;;;5094009;28;20261;-54
2022/01/28 02:53:48;;;;;;;8.47;2.60;;;4.00;99.90;;;;;;5080128;28;20228;-55
2022/01/28 02:56:20;;;;;;;12.17;3.37;;;4.00;99.90;;;;;;5090264;28;20232;-55
2022/01/28 02:58:49;;;;;;;12.17;3.20;;;3.90;99.90;;;;;;5092113;28;20188;-54
2022/01/28 03:01:19;;;;;;;11.83;2.90;;;3.80;99.90;;;;;;5073315;28;20209;-55
2022/01/28 03:03:49;;;;;;;11.43;2.70;;;3.90;99.90;;;;;;5074039;28;20237;-55
2022/01/28 03:06:20;;;;;;;12.53;2.60;;;3.80;99.90;;;;;;5073781;28;20232;-55
2022/01/28 03:08:55;;;;;;;11.43;3.13;;;3.90;99.90;;;;;;5077381;28;20205;-55
2022/01/28 03:11:44;;;;;;;13.10;3.00;;;4.00;99.90;;;;;;5110298;28;20252;-54
2022/01/28 03:14:34;;;;;;;13.10;3.00;;;4.00;99.90;;;;;;5114340;28;20227;-55
2022/01/28 03:17:14;;;;;;;13.73;3.13;;;4.10;99.90;;;;;;5114534;28;20593;-55
2022/01/28 03:19:48;;;;;;;14.80;3.53;;;4.10;99.90;;;;;;5105719;28;20197;-55
2022/01/28 03:22:17;;;;;;;14.63;2.97;;;4.10;99.90;;;;;;5093752;28;20265;-55
2022/01/28 03:24:50;;;;;;;10.83;2.93;;;4.10;99.90;;;;;;5093207;28;20257;-54
2022/01/28 03:27:38;;;;;;;13.30;3.57;;;4.10;99.90;;;;;;5094198;28;20210;-55
2022/01/28 03:30:07;;;;;;;12.73;2.80;;;4.10;99.90;;;;;;5093027;28;20245;-55
2022/01/28 03:32:36;;;;;;;13.43;3.47;;;4.00;99.90;;;;;;5093523;28;20225;-55
2022/01/28 03:35:24;;;;;;;9.47;2.37;;;4.10;99.90;;;;;;5093301;28;20333;-54
2022/01/28 03:37:59;;;;;;;12.10;2.80;;;4.00;99.90;;;;;;5093716;28;20694;-55
2022/01/28 03:40:29;;;;;;;8.30;2.40;;;4.00;99.90;;;;;;5092974;28;20212;-56
2022/01/28 03:42:57;;;;;;;8.37;2.37;;;4.00;99.90;;;;;;5084099;28;20271;-55
2022/01/28 03:45:25;;;;;;;9.63;2.53;;;4.00;99.90;;;;;;5072577;28;20719;-55
2022/01/28 03:47:53;;;;;;;7.10;2.20;;;3.90;99.90;;;;;;5073082;28;20254;-55
2022/01/28 03:50:21;;;;;;;7.37;2.23;;;3.90;99.90;;;;;;5073482;28;20208;-55
2022/01/28 03:52:49;;;;;;;5.90;2.40;;;3.90;99.90;;;;;;5096826;28;20667;-55
2022/01/28 03:55:19;;;;;;;8.37;2.23;;;3.80;99.90;;;;;;5113051;28;20586;-55
2022/01/28 03:57:47;;;;;;;9.13;2.50;;;3.80;99.90;;;;;;5113653;28;20210;-55
2022/01/28 04:00:17;;;;;;;10.03;2.70;;;3.80;99.90;;;;;;5099009;28;20621;-55
2022/01/28 04:02:46;;;;;;;9.67;2.60;;;3.70;99.90;;;;;;5093864;28;20250;-54
2022/01/28 04:13:33;;;;;;;7.93;2.70;;;3.80;99.90;;;;;;5112945;28;20246;-56
2022/01/28 04:16:17;;;;;;;13.17;2.87;;;3.90;99.90;;;;;;5112614;28;20202;-55
2022/01/28 04:18:46;;;;;;;13.40;2.70;;;3.90;99.90;;;;;;5112403;28;20223;-55
2022/01/28 04:21:14;;;;;;;8.87;2.90;;;3.90;99.90;;;;;;5092648;28;20208;-55
2022/01/28 04:23:42;;;;;;;13.43;3.10;;;3.90;99.90;;;;;;5092329;28;20262;-55
2022/01/28 04:26:17;;;;;;;8.57;2.33;;;3.80;99.90;;;;;;5100807;28;20561;-58
2022/01/28 04:28:46;;;;;;;12.20;3.10;;;3.90;99.90;;;;;;5114542;28;20216;-55
2022/01/28 04:31:14;;;;;;;8.07;3.30;;;3.90;99.90;;;;;;5103549;28;20234;-54
2022/01/28 04:33:42;;;;;;;8.47;2.87;;;3.80;99.90;;;;;;5092718;28;20204;-55
2022/01/28 04:36:13;;;;;;;14.60;3.03;;;3.80;99.90;;;;;;5092859;28;20419;-55
2022/01/28 04:38:48;;;;;;;12.13;3.33;;;3.80;99.90;;;;;;5101176;28;20233;-55
2022/01/28 04:41:24;;;;;;;12.77;2.90;;;3.80;99.90;;;;;;5112506;28;20669;-55
2022/01/28 04:43:58;;;;;;;11.13;2.83;;;3.80;99.90;;;;;;5095860;28;20253;-55
2022/01/28 04:46:34;;;;;;;15.83;3.23;;;3.90;99.90;;;;;;5091878;28;20214;-55
2022/01/28 04:49:08;;;;;;;11.97;3.20;;;3.90;99.90;;;;;;5091777;28;20211;-55
2022/01/28 04:51:53;;;;;;;16.27;3.27;;;3.90;99.90;;;;;;5092419;28;20588;-55
2022/01/28 04:54:39;;;;;;;18.57;3.70;;;3.90;99.90;;;;;;5110099;28;20194;-55
2022/01/28 04:57:19;;;;;;;13.10;2.80;;;3.90;99.90;;;;;;5112435;28;20228;-55
2022/01/28 05:00:00;;;;;;;8.97;3.07;;;3.80;99.90;;;;;;5090721;28;20238;-55
2022/01/28 05:02:53;;;;;;;8.40;3.23;;;3.80;99.90;;;;;;5084419;28;20260;-55
2022/01/28 05:05:50;;;;;;;11.03;2.57;;;3.80;99.90;;;;;;5091512;28;20708;-55
2022/01/28 05:08:58;;;;;;;8.87;3.07;;;3.90;99.90;;;;;;5105770;28;20235;-55
2022/01/28 05:28:05;;;;;;;15.60;3.33;;;4.00;99.90;;;;;;5028579;28;20265;-56
2022/01/28 05:30:35;;;;;;;11.03;3.17;;;4.00;99.90;;;;;;5028624;28;20240;-55
2022/01/28 05:33:03;;;;;;;15.23;3.30;;;4.00;99.90;;;;;;5056958;28;20367;-55
2022/01/28 05:35:31;;;;;;;13.23;3.57;;;3.90;99.90;;;;;;5091361;28;20203;-55
2022/01/28 05:37:59;;;;;;;14.37;3.57;;;3.90;99.90;;;;;;5091770;28;20583;-55
2022/01/28 05:40:27;;;;;;;17.43;3.57;;;4.00;99.90;;;;;;5090728;28;20204;-55
2022/01/28 05:42:55;;;;;;;14.73;3.33;;;3.90;99.90;;;;;;5093305;28;20745;-56
2022/01/28 05:45:23;;;;;;;14.77;3.77;;;3.90;99.90;;;;;;5090527;28;20229;-56
2022/01/28 05:47:53;;;;;;;13.40;3.60;;;3.80;99.90;;;;;;5091481;28;20213;-55
2022/01/28 05:50:21;;;;;;;14.33;3.63;;;3.70;99.90;;;;;;5091406;28;20645;-55
2022/01/28 05:52:49;;;;;;;20.37;4.53;;;3.70;99.90;;;;;;5086327;28;20256;-54
2022/01/28 05:55:17;;;;;;;13.97;3.73;;;3.60;99.90;;;;;;5090921;28;20269;-55
2022/01/28 05:57:48;;;;;;;18.93;3.60;;;3.60;99.90;;;;;;5090569;28;20208;-54
2022/01/28 06:00:17;;;;;;;11.17;3.50;;;3.60;99.90;;;;;;5090599;28;20228;-55
2022/01/28 06:02:46;;;;;;;18.20;4.30;;;3.70;99.90;;;;;;5090162;28;20662;-54
2022/01/28 06:05:17;;;;;;;18.13;3.77;;;3.70;99.90;;;;;;5090767;28;20593;-54
2022/01/28 06:07:45;;;;;;;17.60;3.77;;;3.70;99.90;;;;;;5090593;28;20235;-55
2022/01/28 06:10:15;;;;;;;17.97;4.90;;;3.70;99.90;;;;;;5090630;28;20228;-54
2022/01/28 06:12:45;;;;;;;17.63;4.37;;;3.80;99.90;;;;;;5090718;28;20605;-55
2022/01/28 06:15:13;;;;;;;21.97;4.40;;;3.80;99.90;;;;;;5090730;28;20286;-55
2022/01/28 06:17:42;;;;;;;13.87;4.03;;;3.90;99.90;;;;;;5090474;28;20278;-54
2022/01/28 06:20:12;;;;;;;20.07;4.07;;;3.90;99.90;;;;;;5096572;28;20317;-54
2022/01/28 06:22:43;;;;;;;15.83;4.27;;;3.90;99.90;;;;;;5084939;28;20721;-55
2022/01/28 06:25:13;;;;;;;14.23;3.53;;;3.90;99.90;;;;;;5095045;28;20679;-55
2022/01/28 06:27:42;;;;;;;16.20;3.83;;;4.00;99.90;;;;;;5095084;28;20204;-55
2022/01/28 06:30:11;;;;;;;10.73;3.50;;;3.90;99.90;;;;;;5094458;28;20245;-55
2022/01/28 06:32:39;;;;;;;16.97;3.90;;;4.00;99.90;;;;;;5094920;28;20224;-55
2022/01/28 06:35:08;;;;;;;14.20;4.10;;;3.90;99.90;;;;;;5094749;28;20197;-54
2022/01/28 06:37:37;;;;;;;15.40;4.40;;;3.90;99.90;;;;;;5094456;28;20210;-54
2022/01/28 06:40:08;;;;;;;16.83;3.90;;;3.90;99.90;;;;;;5094899;28;20253;-55
2022/01/28 06:42:36;;;;;;;11.07;3.73;;;3.90;99.90;;;;;;5089161;28;20695;-55
2022/01/28 06:45:06;;;;;;;15.50;3.30;;;3.90;99.90;;;;;;5085630;28;20275;-55
2022/01/28 06:47:35;;;;;;;14.70;3.60;;;4.00;99.90;;;;;;5094365;28;20209;-55
2022/01/28 06:50:05;;;;;;;16.30;3.93;;;4.00;99.90;;;;;;5094358;28;20255;-55
2022/01/28 06:52:33;;;;;;;26.13;16.10;;;4.00;99.90;;;;;;5097947;28;20253;-54
2022/01/28 06:55:02;;;;;;;15.13;7.23;;;4.10;99.90;;;;;;5104692;28;20201;-56
2022/01/28 06:57:32;;;;;;;13.80;3.70;;;4.10;99.90;;;;;;5094334;28;20250;-55
2022/01/28 07:00:00;;;;;;;13.03;3.47;;;4.20;99.90;;;;;;5083093;28;20269;-54
2022/01/28 07:02:28;;;;;;;19.50;6.20;;;4.20;99.90;;;;;;5094243;28;20308;-54
2022/01/28 07:04:56;;;;;;;46.97;15.50;;;4.20;99.90;;;;;;5114426;28;20246;-54
2022/01/28 07:07:25;;;;;;;46.00;15.47;;;4.20;99.90;;;;;;5114266;28;20636;-54
2022/01/28 07:09:54;;;;;;;23.67;6.20;;;4.20;99.90;;;;;;5114549;28;20207;-56
2022/01/28 07:12:23;;;;;;;18.93;4.93;;;4.20;99.90;;;;;;5114488;28;20263;-54
2022/01/28 07:14:53;;;;;;;23.47;4.00;;;4.20;99.90;;;;;;5108456;28;20312;-54
2022/01/28 07:17:21;;;;;;;15.10;3.80;;;4.30;99.90;;;;;;5094180;28;20182;-54
2022/01/28 07:19:49;;;;;;;12.80;3.63;;;4.30;99.90;;;;;;5092118;28;20236;-55
2022/01/28 07:22:17;;;;;;;16.93;3.40;;;4.30;99.90;;;;;;5093101;28;20667;-55
2022/01/28 07:24:46;;;;;;;16.23;4.57;;;4.30;99.90;;;;;;5094309;28;20205;-55
2022/01/28 07:27:19;;;;;;;14.87;4.47;;;4.20;99.90;;;;;;5094028;28;20568;-55
2022/01/28 07:29:48;;;;;;;19.07;3.80;;;4.20;99.90;;;;;;5092872;28;20297;-55
2022/01/28 07:32:18;;;;;;;14.43;4.30;;;4.20;99.90;;;;;;5092991;28;20283;-54
2022/01/28 07:34:47;;;;;;;15.53;4.27;;;4.20;99.90;;;;;;5092937;28;20588;-55
2022/01/28 07:37:15;;;;;;;18.40;3.53;;;4.10;99.90;;;;;;5093616;28;20617;-55
2022/01/28 07:39:43;;;;;;;17.37;3.60;;;4.10;99.90;;;;;;5093188;28;20248;-54
2022/01/28 07:42:12;;;;;;;19.50;4.37;;;4.10;99.90;;;;;;5092823;28;20699;-55
2022/01/28 07:44:40;;;;;;;26.73;6.70;;;4.10;99.90;;;;;;5088901;28;20216;-54
2022/01/28 07:47:08;;;;;;;16.43;4.70;;;4.10;99.90;;;;;;5073044;28;20224;-55
2022/01/28 07:49:37;;;;;;;13.87;4.50;;;4.10;99.90;;;;;;5077192;28;20237;-55
2022/01/28 07:52:06;;;;;;;14.77;4.77;;;4.10;99.90;;;;;;5088276;28;20262;-54
2022/01/28 07:54:34;;;;;;;18.87;4.30;;;4.10;99.90;;;;;;5093151;28;20213;-55
2022/01/28 07:57:02;;;;;;;15.67;4.10;;;4.10;99.90;;;;;;5093136;28;20233;-54
2022/01/28 07:59:31;;;;;;;17.60;4.10;;;4.10;99.90;;;;;;5084056;28;20277;-55
2022/01/28 08:01:59;;;;;;;15.90;4.07;;;4.10;99.90;;;;;;5073062;28;20228;-54
2022/01/28 08:04:27;;;;;;;16.07;4.87;;;4.10;99.90;;;;;;5092646;28;20239;-56
2022/01/28 08:06:56;;;;;;;17.97;4.00;;;4.20;99.90;;;;;;5093378;28;20639;-55
2022/01/28 08:09:24;;;;;;;18.60;4.30;;;4.20;99.90;;;;;;5094166;28;20244;-53
2022/01/28 08:11:53;;;;;;;17.80;5.10;;;4.20;99.90;;;;;;5100923;28;20767;-55
2022/01/28 08:14:21;;;;;;;18.27;5.17;;;4.30;99.90;;;;;;5092227;28;20211;-55
2022/01/28 08:16:49;;;;;;;15.50;4.10;;;4.20;99.90;;;;;;5092893;28;20234;-54
2022/01/28 08:19:17;;;;;;;17.53;4.63;;;4.30;99.90;;;;;;5092729;28;20629;-55
2022/01/28 08:21:45;;;;;;;18.67;4.33;;;4.30;99.90;;;;;;5092311;28;20594;-55
2022/01/28 08:24:14;;;;;;;14.93;4.10;;;4.20;99.90;;;;;;5092635;28;20237;-55
2022/01/28 08:26:43;;;;;;;15.60;4.73;;;4.20;99.90;;;;;;5092615;28;20594;-54
2022/01/28 08:29:11;;;;;;;17.13;5.27;;;4.20;99.90;;;;;;5092230;28;20244;-54
2022/01/28 08:31:39;;;;;;;18.80;5.40;;;4.30;99.90;;;;;;5092940;28;20290;-55
2022/01/28 08:34:07;;;;;;;22.17;6.33;;;4.30;99.90;;;;;;5092322;28;20211;-54
2022/01/28 08:36:35;;;;;;;18.67;7.13;;;4.40;99.90;;;;;;5092525;28;20206;-54
2022/01/28 08:39:05;;;;;;;16.97;6.03;;;4.40;99.90;;;;;;5092188;28;20232;-55
2022/01/28 08:41:38;;;;;;;17.87;5.27;;;4.40;99.90;;;;;;5091746;28;20206;-54
2022/01/28 08:44:07;;;;;;;16.67;4.10;;;4.50;99.90;;;;;;5110356;28;20195;-55
2022/01/28 08:46:35;;;;;;;20.80;4.67;;;4.60;99.90;;;;;;5082754;28;20235;-54
2022/01/28 08:49:03;;;;;;;20.47;5.57;;;4.60;99.90;;;;;;5092528;28;20202;-55
2022/01/28 08:51:37;;;;;;;23.53;6.37;;;4.70;99.90;;;;;;5091129;28;20238;-55
2022/01/28 08:54:05;;;;;;;25.53;10.50;;;4.70;99.90;;;;;;5092003;28;20557;-55
2022/01/28 08:56:35;;;;;;;26.50;10.17;;;4.70;99.90;;;;;;5091650;28;20200;-55
2022/01/28 08:59:23;;;;;;;37.20;15.93;;;4.70;99.90;;;;;;5096882;28;20838;-55
2022/01/28 09:01:51;;;;;;;51.40;22.27;;;4.70;99.90;;;;;;5111822;28;20232;-55
2022/01/28 09:04:19;;;;;;;36.17;15.40;;;4.70;99.90;;;;;;5112547;28;20284;-55
2022/01/28 09:06:47;;;;;;;40.43;18.43;;;4.80;99.90;;;;;;5111369;28;20291;-55
2022/01/28 09:09:18;;;;;;;17.50;9.50;;;4.80;99.90;;;;;;5106810;28;20203;-55
2022/01/28 09:11:54;;;;;;;21.97;8.77;;;4.80;99.90;;;;;;5108107;28;20261;-54
2022/01/28 09:14:22;;;;;;;14.43;4.90;;;4.90;99.90;;;;;;5091285;28;20210;-55
2022/01/28 09:16:52;;;;;;;14.97;4.27;;;4.90;99.90;;;;;;5091842;28;20203;-55
2022/01/28 09:19:20;;;;;;;14.63;4.17;;;5.00;99.90;;;;;;5087741;28;20261;-55
2022/01/28 09:21:48;;;;;;;23.17;4.97;;;5.00;99.90;;;;;;5071609;28;20259;-54
2022/01/28 09:24:16;;;;;;;17.03;5.33;;;5.00;99.90;;;;;;5084635;28;20732;-55
2022/01/28 09:26:44;;;;;;;13.83;3.80;;;5.10;99.90;;;;;;5091216;28;20301;-54
2022/01/28 09:29:14;;;;;;;19.67;4.90;;;5.10;99.90;;;;;;5090855;28;20208;-55
2022/01/28 09:31:42;;;;;;;22.07;5.37;;;5.20;99.90;;;;;;5091156;28;20733;-55
2022/01/28 09:34:10;;;;;;;14.80;4.50;;;5.20;99.90;;;;;;5091841;28;20257;-55
2022/01/28 09:36:39;;;;;;;15.97;5.73;;;5.30;99.90;;;;;;5091248;28;20231;-55
2022/01/28 09:39:07;;;;;;;18.73;4.50;;;5.40;99.90;;;;;;5091034;28;20809;-55
2022/01/28 09:41:36;;;;;;;20.47;5.40;;;5.40;99.90;;;;;;5091499;28;20205;-55
2022/01/28 09:44:08;;;;;;;18.93;3.87;;;5.50;99.90;;;;;;5097207;28;20206;-55
2022/01/28 09:46:38;;;;;;;24.63;5.93;;;5.50;99.90;;;;;;5091719;28;20227;-55
2022/01/28 09:49:06;;;;;;;15.80;5.57;;;5.60;99.90;;;;;;5091355;28;20260;-56
2022/01/28 09:51:35;;;;;;;17.60;4.03;;;5.70;99.90;;;;;;5090845;28;20205;-55
2022/01/28 09:54:03;;;;;;;22.53;5.37;;;5.80;99.90;;;;;;5106377;28;20206;-55
2022/01/28 09:56:32;;;;;;;16.93;5.67;;;5.90;99.90;;;;;;5111493;28;20236;-56
2022/01/28 09:59:00;;;;;;;15.43;4.33;;;6.10;99.90;;;;;;5096588;28;20299;-55
2022/01/28 10:01:29;;;;;;;45.93;18.90;;;6.10;99.90;;;;;;5091313;28;20229;-55
2022/01/28 10:04:04;;;;;;;35.93;13.67;;;6.10;99.90;;;;;;5091338;28;20211;-54
2022/01/28 10:06:34;;;;;;;24.73;7.67;;;6.10;99.90;;;;;;5090934;28;20239;-54
2022/01/28 10:09:08;;;;;;;46.83;19.67;;;6.00;99.90;;;;;;5090223;28;20208;-54
2022/01/28 10:11:38;;;;;;;19.80;4.53;;;6.00;99.90;;;;;;5070477;28;20209;-54
2022/01/28 10:14:12;;;;;;;36.67;13.10;;;6.00;99.90;;;;;;5070819;28;20194;-55
2022/01/28 10:16:40;;;;;;;18.23;4.40;;;6.00;99.90;;;;;;5083302;28;20233;-54
2022/01/28 10:19:11;;;;;;;12.33;4.47;;;5.90;99.90;;;;;;5090297;28;20263;-54
2022/01/28 10:21:40;;;;;;;30.60;9.05;;;5.90;99.90;;;;;;5090580;28;20468;-55
2022/01/28 10:24:14;;;;;;;15.03;5.77;;;6.00;99.90;;;;;;5090723;28;20252;-55
2022/01/28 10:26:45;;;;;;;16.20;4.53;;;6.00;99.90;;;;;;5078859;28;20734;-55
2022/01/28 10:29:15;;;;;;;17.90;4.77;;;6.00;99.90;;;;;;5069822;28;20239;-55
2022/01/28 10:31:56;;;;;;;14.23;4.60;;;6.00;99.90;;;;;;5070443;28;20230;-55
2022/01/28 10:34:34;;;;;;;20.20;4.70;;;6.20;99.90;;;;;;5070562;28;20229;-56
2022/01/28 10:37:14;;;;;;;19.40;4.43;;;6.30;99.90;;;;;;5090689;28;20498;-55
2022/01/28 10:39:45;;;;;;;16.00;4.27;;;6.20;99.90;;;;;;5080639;28;20281;-55
2022/01/28 10:42:16;;;;;;;24.53;10.47;;;6.10;99.90;;;;;;5092503;28;20283;-55
2022/01/28 10:44:56;;;;;;;32.80;15.13;;;6.10;99.90;;;;;;5110753;28;20233;-58
2022/01/28 10:47:35;;;;;;;16.27;5.70;;;6.10;99.90;;;;;;5111213;28;20296;-56
2022/01/28 10:50:23;;;;;;;12.53;4.07;;;6.10;99.90;;;;;;5111207;28;20196;-55
2022/01/28 10:53:04;;;;;;;20.77;4.60;;;6.10;99.90;;;;;;5110015;28;20221;-57
2022/01/28 10:55:34;;;;;;;22.47;5.33;;;6.10;99.90;;;;;;5070536;28;20642;-55
2022/01/28 10:58:05;;;;;;;15.10;5.27;;;6.10;99.90;;;;;;5076709;28;20199;-55
2022/01/28 11:00:37;;;;;;;20.33;5.67;;;6.00;99.90;;;;;;5096863;28;20212;-55
2022/01/28 11:03:07;;;;;;;15.20;4.50;;;5.90;99.90;;;;;;5110112;28;20224;-55
2022/01/28 11:05:39;;;;;;;22.67;4.57;;;5.90;99.90;;;;;;5097272;28;20202;-55
2022/01/28 11:08:11;;;;;;;13.37;4.30;;;5.80;99.90;;;;;;5089340;28;20710;-54
2022/01/28 11:10:39;;;;;;;16.97;4.37;;;5.80;99.90;;;;;;5105611;28;20203;-56
2022/01/28 11:13:08;;;;;;;18.07;4.80;;;6.00;99.90;;;;;;5099667;28;20298;-55
2022/01/28 11:15:36;;;;;;;16.97;4.20;;;6.10;99.90;;;;;;5093029;28;20903;-55
2022/01/28 11:18:08;;;;;;;24.63;6.50;;;6.10;99.90;;;;;;5093572;28;20203;-59
2022/01/28 11:20:42;;;;;;;15.27;6.13;;;6.10;99.90;;;;;;5095449;28;20248;-54
2022/01/28 11:23:24;;;;;;;13.83;5.50;;;6.10;99.90;;;;;;5093276;28;20365;-56
2022/01/28 11:26:12;;;;;;;16.30;4.23;;;6.20;99.90;;;;;;5093284;28;20208;-55
2022/01/28 11:28:43;;;;;;;13.70;3.53;;;6.40;99.90;;;;;;5094015;28;20566;-55
2022/01/28 11:31:13;;;;;;;18.23;3.97;;;6.40;99.90;;;;;;5092887;28;20637;-55
2022/01/28 11:33:48;;;;;;;19.27;4.57;;;6.40;99.90;;;;;;5093206;28;20230;-55
2022/01/28 11:36:32;;;;;;;19.97;4.83;;;6.50;99.90;;;;;;5089136;28;20256;-55
2022/01/28 11:39:08;;;;;;;20.33;7.53;;;6.50;99.90;;;;;;5093694;28;20205;-55
2022/01/28 11:41:37;;;;;;;25.10;10.37;;;6.50;99.90;;;;;;5092815;28;20195;-55
2022/01/28 11:44:05;;;;;;;17.00;5.47;;;6.50;99.90;;;;;;5092449;28;20615;-55
2022/01/28 11:46:38;;;;;;;29.33;12.30;;;6.60;99.90;;;;;;5092635;28;20233;-61
2022/01/28 11:49:22;;;;;;;20.97;7.63;;;6.70;99.90;;;;;;5106570;28;20231;-55
2022/01/28 11:51:53;;;;;;;23.27;9.40;;;6.70;99.90;;;;;;5113339;28;20587;-55
2022/01/28 11:54:25;;;;;;;27.57;8.30;;;6.70;99.90;;;;;;5113350;28;20206;-55
2022/01/28 11:57:15;;;;;;;21.30;7.60;;;6.70;99.90;;;;;;5101124;28;20695;-55
2022/01/28 11:59:44;;;;;;;21.70;4.97;;;6.80;99.90;;;;;;5082405;28;20228;-55
2022/01/28 12:02:16;;;;;;;17.43;5.07;;;6.80;99.90;;;;;;5091714;28;20219;-55
2022/01/28 12:04:46;;;;;;;16.87;4.30;;;6.80;99.90;;;;;;5092891;28;20211;-56
2022/01/28 12:07:19;;;;;;;22.53;5.73;;;6.80;99.90;;;;;;5092815;28;20260;-55
2022/01/28 12:09:49;;;;;;;16.30;4.20;;;6.80;99.90;;;;;;5087029;28;20229;-55
2022/01/28 12:12:25;;;;;;;21.43;5.20;;;6.80;99.90;;;;;;5071424;28;20225;-55
2022/01/28 12:15:09;;;;;;;19.73;4.27;;;6.70;99.90;;;;;;5072406;28;20266;-55
2022/01/28 12:17:45;;;;;;;20.50;4.40;;;6.70;99.90;;;;;;5071867;28;20210;-55
2022/01/28 12:20:39;;;;;;;17.87;5.13;;;6.60;99.90;;;;;;5088565;28;20226;-55
2022/01/28 12:23:39;;;;;;;24.43;4.63;;;6.60;99.90;;;;;;5091313;28;20229;-55
2022/01/28 12:26:07;;;;;;;20.33;5.00;;;6.50;99.90;;;;;;5093131;28;20252;-56
2022/01/28 12:28:53;;;;;;;25.93;7.20;;;6.50;99.90;;;;;;5092168;28;20227;-54
2022/01/28 12:31:27;;;;;;;24.10;7.90;;;6.60;99.90;;;;;;5092524;28;20212;-56
2022/01/28 12:33:57;;;;;;;30.93;13.20;;;6.60;99.90;;;;;;5088244;28;20213;-54
2022/01/28 12:36:28;;;;;;;19.87;5.77;;;6.70;99.90;;;;;;5086190;28;20592;-54
2022/01/28 12:39:19;;;;;;;26.63;10.93;;;6.80;99.90;;;;;;5092002;28;20204;-55
2022/01/28 12:41:56;;;;;;;21.27;4.83;;;6.70;99.90;;;;;;5077268;28;20235;-55
2022/01/28 12:44:24;;;;;;;24.47;6.43;;;6.70;99.90;;;;;;5080198;28;20311;-54
2022/01/28 12:47:02;;;;;;;28.47;7.67;;;6.70;99.90;;;;;;5091914;28;20214;-55
2022/01/28 12:49:31;;;;;;;25.37;8.57;;;6.70;99.90;;;;;;5091868;28;20292;-55
2022/01/28 12:52:02;;;;;;;18.10;4.77;;;6.70;99.90;;;;;;5094516;28;20239;-56
2022/01/28 12:54:46;;;;;;;17.20;4.47;;;6.70;99.90;;;;;;5103245;28;20226;-56
2022/01/28 12:57:17;;;;;;;25.33;9.37;;;6.70;99.90;;;;;;5091923;28;20196;-56
2022/01/28 12:59:47;;;;;;;17.83;6.20;;;6.80;99.90;;;;;;5080835;28;20203;-54
2022/01/28 13:02:17;;;;;;;17.33;5.03;;;6.70;99.90;;;;;;5088425;28;20258;-55
2022/01/28 13:05:10;;;;;;;18.20;4.27;;;6.70;99.90;;;;;;5082469;28;20206;-55
2022/01/28 13:10:32;;;;;;;15.57;4.10;;;6.90;99.90;;;;;;5094733;28;20306;-55
2022/01/28 13:13:05;;;;;;;22.73;5.00;;;6.90;99.90;;;;;;5091671;28;20220;-55
2022/01/28 13:15:34;;;;;;;19.97;4.60;;;6.90;99.90;;;;;;5091303;28;20683;-56
2022/01/28 13:18:04;;;;;;;21.90;4.77;;;6.90;99.90;;;;;;5092352;28;20680;-55
2022/01/28 13:20:33;;;;;;;16.97;4.33;;;7.00;99.90;;;;;;5081374;28;20250;-55
2022/01/28 13:23:02;;;;;;;19.20;6.40;;;7.00;99.90;;;;;;5070739;28;20277;-55
2022/01/28 13:25:32;;;;;;;21.77;5.83;;;7.10;99.90;;;;;;5072848;28;20203;-54
2022/01/28 13:28:02;;;;;;;17.73;4.23;;;7.20;99.90;;;;;;5074371;28;20257;-55
2022/01/28 13:30:35;;;;;;;16.53;4.13;;;7.20;99.90;;;;;;5092436;28;20266;-54
2022/01/28 13:33:07;;;;;;;21.40;4.23;;;7.20;99.90;;;;;;5091738;28;21027;-55
2022/01/28 13:35:37;;;;;;;14.13;4.50;;;7.20;99.90;;;;;;5090633;28;20682;-55
2022/01/28 13:38:16;;;;;;;16.07;3.97;;;7.20;99.90;;;;;;5091233;28;20188;-55
2022/01/28 13:40:45;;;;;;;23.30;4.53;;;7.30;99.90;;;;;;5090774;28;20200;-55
2022/01/28 13:43:16;;;;;;;14.47;4.30;;;7.30;99.90;;;;;;5089275;28;20263;-55
2022/01/28 13:45:50;;;;;;;15.97;4.43;;;7.30;99.90;;;;;;5090204;28;20212;-55
2022/01/28 13:48:36;;;;;;;13.13;4.77;;;7.30;99.90;;;;;;5090355;28;20208;-55
2022/01/28 13:51:06;;;;;;;13.87;3.27;;;7.30;99.90;;;;;;5090806;28;20238;-55
2022/01/28 13:56:31;;;;;;;17.63;4.13;;;7.30;99.90;;;;;;5090031;28;20665;-55
2022/01/28 13:59:00;;;;;;;15.23;4.23;;;7.20;99.90;;;;;;5089309;28;20207;-56
2022/01/28 14:01:29;;;;;;;18.07;4.57;;;7.10;99.90;;;;;;5080003;28;20201;-55
2022/01/28 14:03:59;;;;;;;14.53;4.23;;;7.20;99.90;;;;;;5084946;28;20238;-55
2022/01/28 14:06:29;;;;;;;21.47;4.57;;;7.20;99.90;;;;;;5091253;28;20677;-55
2022/01/28 14:09:10;;;;;;;19.23;4.43;;;7.20;99.90;;;;;;5091098;28;20313;-54